Time;durP1;ratioP1;P1;durP2;ratioP2;P2;SDS_P1;SDS_P2;PMS_P1;PMS_P2;Temp;Humidity;BMP_temperature;BMP_pressure;BME280_temperature;BME280_humidity;BME280_pressure;Samples;Min_cycle;Max_cycle;Signal;HPM_P1;HPM_P2
2022/09/04 00:01:28;;;;;;;5.38;2.10;;;;;;;18.59;66.73;97205.81;4942016;28;20737;-75
2022/09/04 00:04:10;;;;;;;2.53;1.90;;;;;;;18.49;66.93;97199.69;4970307;28;20211;-75
2022/09/04 00:06:42;;;;;;;2.92;2.15;;;;;;;18.47;67.21;97214.22;4954069;28;20202;-76
2022/09/04 00:09:47;;;;;;;3.28;2.15;;;;;;;18.42;67.42;97214.31;4948168;28;20211;-75
2022/09/04 00:12:12;;;;;;;2.65;2.08;;;;;;;18.59;67.05;97213.72;4970170;28;20280;-75
2022/09/04 00:14:47;;;;;;;2.05;1.70;;;;;;;18.44;67.29;97210.31;4944279;28;20660;-75
2022/09/04 00:17:28;;;;;;;3.10;2.10;;;;;;;18.38;67.41;97216.00;4961776;28;20675;-75
2022/09/04 00:20:07;;;;;;;2.72;2.00;;;;;;;18.44;67.54;97215.59;4984870;28;20642;-76
2022/09/04 00:22:51;;;;;;;2.25;1.67;;;;;;;18.43;67.43;97214.03;4961751;28;20212;-75
2022/09/04 00:25:22;;;;;;;3.47;2.03;;;;;;;18.51;67.88;97220.47;4937631;28;20649;-75
2022/09/04 00:27:55;;;;;;;2.53;2.17;;;;;;;18.56;67.93;97217.75;4949511;28;20587;-75
2022/09/04 00:30:21;;;;;;;2.33;1.90;;;;;;;18.67;67.57;97219.06;4966699;28;20164;-75
2022/09/04 00:32:50;;;;;;;2.35;2.15;;;;;;;18.72;67.91;97220.84;4968254;28;20040;-75
2022/09/04 00:35:22;;;;;;;2.45;2.25;;;;;;;18.64;67.06;97218.88;4967659;28;20248;-75
2022/09/04 00:38:06;;;;;;;2.67;1.92;;;;;;;18.38;66.76;97229.16;4954181;28;20352;-75
2022/09/04 00:40:37;;;;;;;2.15;1.85;;;;;;;18.44;66.79;97228.78;4960580;28;20641;-75
2022/09/04 00:43:34;;;;;;;1.90;1.80;;;;;;;18.26;66.12;97232.28;4956096;28;20172;-75
2022/09/04 00:45:59;;;;;;;1.90;1.60;;;;;;;18.39;66.55;97236.00;4972603;28;20343;-75
2022/09/04 00:48:45;;;;;;;2.63;1.70;;;;;;;18.20;66.51;97238.72;4970356;28;20192;-76
2022/09/04 00:51:19;;;;;;;2.92;1.50;;;;;;;18.12;66.74;97240.19;4962692;28;20176;-75
2022/09/04 00:54:12;;;;;;;2.53;2.33;;;;;;;18.05;67.41;97240.56;4958758;28;20292;-75
2022/09/04 00:56:59;;;;;;;2.15;1.95;;;;;;;18.13;66.68;97242.53;4960180;28;20231;-75
2022/09/04 00:59:36;;;;;;;3.75;2.00;;;;;;;18.19;66.92;97248.50;4966289;28;20242;-75
2022/09/04 01:02:20;;;;;;;3.42;2.00;;;;;;;18.03;67.38;97253.25;4961849;28;20551;-74
2022/09/04 01:05:05;;;;;;;2.08;1.98;;;;;;;18.11;68.00;97257.84;4967924;28;20636;-75
2022/09/04 01:07:48;;;;;;;2.72;2.40;;;;;;;18.28;68.04;97259.13;4925440;28;20191;-74
2022/09/04 01:10:46;;;;;;;3.85;2.78;;;;;;;18.38;69.24;97256.31;4948690;28;20203;-75
2022/09/04 01:13:20;;;;;;;2.38;2.17;;;;;;;18.50;68.75;97253.94;4937532;28;20219;-75
2022/09/04 01:15:53;;;;;;;3.17;2.88;;;;;;;18.61;68.80;97257.19;4951959;28;20214;-75
2022/09/04 01:18:31;;;;;;;3.00;2.70;;;;;;;18.61;68.80;97269.56;4941152;28;20189;-75
2022/09/04 01:21:12;;;;;;;4.63;2.90;;;;;;;18.69;68.92;97266.25;4935481;28;20196;-75
2022/09/04 01:24:11;;;;;;;2.88;2.53;;;;;;;18.63;69.05;97264.81;4964347;28;20283;-74
2022/09/04 01:26:46;;;;;;;2.70;2.50;;;;;;;18.69;67.97;97263.63;4978667;28;20270;-75
2022/09/04 01:29:22;;;;;;;2.35;2.17;;;;;;;18.55;68.22;97260.22;4951182;28;20289;-74
2022/09/04 01:32:01;;;;;;;2.30;2.10;;;;;;;18.50;68.65;97261.88;4949045;28;20730;-75
2022/09/04 01:34:37;;;;;;;2.65;2.45;;;;;;;18.55;68.01;97265.50;4932247;28;20789;-74
2022/09/04 01:37:15;;;;;;;3.22;2.30;;;;;;;18.46;68.13;97260.13;4948644;28;20657;-75
2022/09/04 01:39:44;;;;;;;2.22;1.90;;;;;;;18.56;68.07;97267.84;4948971;28;20210;-74
2022/09/04 01:42:43;;;;;;;2.70;2.50;;;;;;;18.46;69.22;97262.75;4931396;28;20243;-74
2022/09/04 01:45:09;;;;;;;2.45;2.25;;;;;;;18.66;68.51;97261.56;4945557;28;20239;-73
2022/09/04 01:47:43;;;;;;;2.83;2.60;;;;;;;18.62;68.93;97263.25;4947880;28;20318;-75
2022/09/04 01:50:13;;;;;;;3.30;3.00;;;;;;;18.68;68.93;97267.34;4956587;28;20254;-75
2022/09/04 01:52:57;;;;;;;2.97;2.78;;;;;;;18.60;69.02;97265.41;4964033;28;20536;-74
2022/09/04 01:55:30;;;;;;;3.63;2.20;;;;;;;18.78;68.61;97272.41;4954894;28;20363;-75
2022/09/04 01:58:02;;;;;;;2.58;2.30;;;;;;;18.77;68.88;97268.22;4937862;28;20702;-74
2022/09/04 02:00:32;;;;;;;2.33;2.13;;;;;;;18.64;68.47;97266.34;4949533;28;20602;-75
2022/09/04 02:03:03;;;;;;;3.75;2.40;;;;;;;18.63;68.77;97275.38;4949492;28;20208;-75
2022/09/04 02:05:29;;;;;;;4.45;2.10;;;;;;;18.71;68.11;97270.19;4968439;28;20642;-74
2022/09/04 02:08:14;;;;;;;2.10;1.98;;;;;;;18.67;68.13;97271.81;4980817;28;20393;-74
2022/09/04 02:11:04;;;;;;;2.10;1.90;;;;;;;18.48;68.23;97271.94;4956659;28;20352;-75
2022/09/04 02:13:50;;;;;;;1.98;1.80;;;;;;;18.62;68.23;97273.78;4964322;28;20324;-75
2022/09/04 02:16:44;;;;;;;2.10;2.00;;;;;;;18.44;68.26;97275.44;4966020;28;20296;-75
2022/09/04 02:19:44;;;;;;;2.05;1.85;;;;;;;18.35;68.06;97277.97;4960895;28;20202;-75
2022/09/04 02:22:19;;;;;;;2.95;2.10;;;;;;;18.32;67.85;97275.94;4918738;28;20200;-75
2022/09/04 02:24:50;;;;;;;3.25;2.17;;;;;;;18.39;67.21;97276.31;4978517;28;20251;-74
2022/09/04 02:27:28;;;;;;;2.72;2.33;;;;;;;18.21;66.80;97274.56;4931019;28;20271;-75
2022/09/04 02:30:07;;;;;;;2.63;2.42;;;;;;;18.07;66.68;97275.31;4973376;28;20355;-74
2022/09/04 02:32:44;;;;;;;2.22;1.98;;;;;;;17.97;67.00;97275.47;4956614;28;20157;-75
2022/09/04 02:35:13;;;;;;;3.20;2.00;;;;;;;17.87;66.74;97276.44;4952312;28;20242;-74
2022/09/04 02:37:52;;;;;;;2.42;2.22;;;;;;;17.64;67.97;97283.34;4947950;28;20195;-74
2022/09/04 02:40:31;;;;;;;2.20;2.00;;;;;;;17.58;67.36;97282.66;4967707;28;20450;-75
2022/09/04 02:43:35;;;;;;;2.45;1.90;;;;;;;17.61;67.23;97283.94;4965766;28;20192;-74
2022/09/04 02:46:11;;;;;;;2.90;1.88;;;;;;;17.66;67.31;97289.13;4977751;28;20656;-75
2022/09/04 02:49:22;;;;;;;1.90;1.80;;;;;;;17.45;67.75;97285.25;4936062;28;20405;-75
2022/09/04 02:52:45;;;;;;;2.10;1.90;;;;;;;17.50;67.66;97282.53;4905171;28;20306;-73
2022/09/04 02:55:29;;;;;;;2.55;2.10;;;;;;;17.54;67.57;97286.16;4913100;28;20298;-75
2022/09/04 02:58:22;;;;;;;4.30;1.60;;;;;;;17.55;67.68;97285.09;4921983;28;20210;-75
2022/09/04 03:00:47;;;;;;;1.92;1.73;;;;;;;17.71;67.41;97289.03;4895291;28;20195;-75
2022/09/04 03:03:25;;;;;;;2.50;2.30;;;;;;;17.56;67.94;97286.63;4915594;28;20225;-75
2022/09/04 03:06:10;;;;;;;2.55;2.15;;;;;;;17.55;68.05;97290.34;4891549;28;20357;-75
2022/09/04 03:08:41;;;;;;;2.38;2.10;;;;;;;17.68;67.65;97283.56;4897312;28;20389;-74
2022/09/04 03:11:18;;;;;;;2.53;2.15;;;;;;;17.64;68.32;97293.88;4914915;28;20240;-75
2022/09/04 03:13:50;;;;;;;2.63;2.35;;;;;;;17.72;67.93;97292.47;4889850;28;20264;-75
2022/09/04 03:16:46;;;;;;;3.88;3.13;;;;;;;17.68;68.25;97294.09;4921633;28;20217;-75
2022/09/04 03:19:46;;;;;;;2.72;2.42;;;;;;;17.59;68.37;97296.59;4917132;28;20632;-75
2022/09/04 03:22:35;;;;;;;3.40;2.83;;;;;;;17.73;68.16;97297.44;4921628;28;20186;-74
2022/09/04 03:25:22;;;;;;;3.15;2.60;;;;;;;17.72;68.23;97290.63;4967367;28;20195;-74
2022/09/04 03:27:48;;;;;;;2.42;2.15;;;;;;;17.89;67.90;97294.56;4962959;28;20266;-75
2022/09/04 03:30:14;;;;;;;1.80;1.70;;;;;;;17.90;68.50;97296.16;4961895;28;20230;-75
2022/09/04 03:33:13;;;;;;;2.00;1.80;;;;;;;17.74;68.63;97296.38;4961793;28;20311;-74
2022/09/04 03:35:38;;;;;;;2.33;2.08;;;;;;;17.92;68.26;97294.00;4947162;28;20216;-75
2022/09/04 03:38:19;;;;;;;3.08;2.13;;;;;;;17.76;68.80;97302.13;4976440;28;20199;-75
2022/09/04 03:40:56;;;;;;;2.33;2.10;;;;;;;17.76;68.41;97296.84;4978660;28;20253;-75
2022/09/04 03:43:43;;;;;;;2.78;2.50;;;;;;;17.70;68.12;97298.03;4969099;28;20168;-75
2022/09/04 03:46:34;;;;;;;2.83;2.45;;;;;;;17.69;68.32;97301.72;4966763;28;20639;-75
2022/09/04 03:49:13;;;;;;;2.67;2.30;;;;;;;17.67;68.14;97303.84;4968151;28;20548;-75
2022/09/04 03:51:49;;;;;;;2.70;2.50;;;;;;;17.74;68.19;97309.53;4950078;28;20200;-75
2022/09/04 03:54:28;;;;;;;4.72;2.55;;;;;;;17.63;68.50;97305.47;4950099;28;20264;-75
2022/09/04 03:57:22;;;;;;;2.92;2.15;;;;;;;17.54;68.14;97307.22;4951401;28;20368;-75
2022/09/04 03:59:48;;;;;;;2.95;2.22;;;;;;;17.66;67.58;97307.53;4962439;28;20203;-75
2022/09/04 04:02:50;;;;;;;2.08;1.88;;;;;;;17.51;68.02;97313.03;4952137;28;20196;-75
2022/09/04 04:05:39;;;;;;;2.25;1.98;;;;;;;17.52;68.22;97322.50;4950038;28;20200;-74
2022/09/04 04:08:12;;;;;;;3.85;3.25;;;;;;;17.52;67.52;97317.25;4966545;28;20188;-75
2022/09/04 04:10:58;;;;;;;2.78;2.15;;;;;;;17.43;67.53;97319.75;4966663;28;20638;-75
2022/09/04 04:13:40;;;;;;;2.22;1.65;;;;;;;17.58;67.66;97316.09;4958391;28;20286;-75
2022/09/04 04:16:18;;;;;;;2.40;2.20;;;;;;;17.36;67.54;97324.59;4963825;28;20110;-75
2022/09/04 04:18:52;;;;;;;2.53;1.85;;;;;;;17.47;67.22;97317.31;4967557;28;20644;-74
2022/09/04 04:21:38;;;;;;;2.70;2.00;;;;;;;17.35;67.22;97325.63;4970110;28;20290;-75
2022/09/04 04:24:19;;;;;;;1.92;1.70;;;;;;;17.31;67.23;97322.78;4949946;28;20274;-75
2022/09/04 04:27:03;;;;;;;2.67;2.00;;;;;;;17.32;67.51;97339.38;4953575;28;20573;-75
2022/09/04 04:29:36;;;;;;;2.38;1.80;;;;;;;17.32;67.15;97334.88;4951963;28;20189;-75
2022/09/04 04:32:18;;;;;;;1.95;1.42;;;;;;;17.39;66.97;97334.53;4971984;28;20192;-75
2022/09/04 04:35:20;;;;;;;2.30;1.70;;;;;;;17.21;67.35;97339.50;4965446;28;20199;-75
2022/09/04 04:38:01;;;;;;;3.10;1.67;;;;;;;17.28;66.92;97347.03;4934014;28;20717;-75
2022/09/04 04:40:45;;;;;;;3.17;1.90;;;;;;;17.30;66.79;97352.81;4971270;28;20276;-75
2022/09/04 04:43:39;;;;;;;2.80;1.95;;;;;;;17.18;66.91;97350.59;4968666;28;20199;-75
2022/09/04 04:46:28;;;;;;;2.85;1.95;;;;;;;17.00;68.10;97354.75;4963590;28;20249;-75
2022/09/04 04:49:41;;;;;;;1.85;1.75;;;;;;;16.98;68.09;97364.78;4926699;28;20224;-75
2022/09/04 04:52:28;;;;;;;1.88;1.67;;;;;;;17.08;67.47;97363.09;4959946;28;20309;-75
2022/09/04 04:54:55;;;;;;;1.92;1.73;;;;;;;17.11;67.53;97368.56;4968600;28;20210;-75
2022/09/04 04:57:25;;;;;;;2.85;2.00;;;;;;;17.07;67.66;97364.13;4952255;28;20166;-75
2022/09/04 05:00:10;;;;;;;2.63;1.90;;;;;;;16.89;67.71;97369.06;4949678;28;20239;-74
2022/09/04 05:02:51;;;;;;;2.97;1.80;;;;;;;16.97;67.49;97365.06;4956829;28;20210;-75
2022/09/04 05:05:49;;;;;;;2.28;1.75;;;;;;;16.77;67.72;97368.66;4939583;28;20192;-75
2022/09/04 05:08:18;;;;;;;2.00;1.80;;;;;;;17.04;67.84;97374.16;4948049;28;20177;-75
2022/09/04 05:10:55;;;;;;;2.10;1.90;;;;;;;16.76;67.61;97369.72;4931452;28;20262;-75
2022/09/04 05:13:48;;;;;;;2.38;1.88;;;;;;;16.85;67.99;97376.75;4947289;28;20670;-75
2022/09/04 05:16:32;;;;;;;2.17;1.70;;;;;;;16.86;67.93;97372.25;4964046;28;20200;-74
2022/09/04 05:19:12;;;;;;;3.15;2.33;;;;;;;16.97;68.10;97391.38;4942731;28;20220;-75
2022/09/04 05:22:02;;;;;;;2.55;1.90;;;;;;;16.92;67.85;97389.56;4957525;28;20607;-75
2022/09/04 05:24:47;;;;;;;2.20;1.52;;;;;;;16.94;68.26;97391.91;4964685;28;20356;-75
2022/09/04 05:27:19;;;;;;;2.15;1.95;;;;;;;17.04;67.85;97397.84;4935023;28;20265;-74
2022/09/04 05:30:18;;;;;;;2.28;2.03;;;;;;;17.02;68.00;97404.47;4963522;28;20165;-75
2022/09/04 05:32:57;;;;;;;2.80;2.30;;;;;;;17.19;67.69;97406.63;4980744;28;20187;-74
2022/09/04 05:35:55;;;;;;;2.25;2.03;;;;;;;17.14;67.79;97409.34;4962042;28;20706;-74
2022/09/04 05:38:28;;;;;;;2.33;2.08;;;;;;;17.14;67.91;97410.09;4898277;28;20234;-74
2022/09/04 05:41:13;;;;;;;2.60;2.17;;;;;;;17.16;67.79;97409.81;4931161;28;20282;-75
2022/09/04 05:44:16;;;;;;;2.87;2.47;;;;;;;17.22;68.00;97416.59;4947708;28;20650;-75
2022/09/04 05:46:57;;;;;;;2.20;2.00;;;;;;;17.29;67.80;97419.69;4965667;28;20184;-75
2022/09/04 05:49:41;;;;;;;3.28;2.83;;;;;;;17.40;68.22;97425.59;4944225;28;20269;-75
2022/09/04 05:52:34;;;;;;;2.50;2.30;;;;;;;17.46;68.35;97434.19;4963793;28;20220;-75
2022/09/04 05:55:15;;;;;;;2.60;2.33;;;;;;;17.57;68.10;97430.38;4965959;28;20192;-74
2022/09/04 05:57:43;;;;;;;3.22;2.90;;;;;;;17.83;67.75;97437.94;4948365;28;20678;-75
2022/09/04 06:00:16;;;;;;;4.40;2.40;;;;;;;17.81;67.83;97432.97;4950693;28;20215;-75
2022/09/04 06:02:42;;;;;;;3.88;2.97;;;;;;;18.02;67.63;97436.13;4952104;28;20266;-75
2022/09/04 06:05:28;;;;;;;4.20;3.50;;;;;;;18.04;67.85;97428.69;4962258;28;20289;-75
2022/09/04 06:08:00;;;;;;;4.05;3.25;;;;;;;18.06;68.11;97438.94;4977469;28;20728;-75
2022/09/04 06:11:20;;;;;;;4.90;3.47;;;;;;;18.04;68.49;97441.88;4965478;28;20183;-75
2022/09/04 06:14:23;;;;;;;4.18;3.42;;;;;;;18.20;68.52;97449.56;4946273;28;20367;-75
2022/09/04 06:17:14;;;;;;;3.20;2.78;;;;;;;18.24;68.33;97446.06;4935236;28;20161;-74
2022/09/04 06:19:44;;;;;;;3.92;3.22;;;;;;;18.48;68.25;97448.59;4949998;28;20279;-75
2022/09/04 06:22:12;;;;;;;3.72;3.38;;;;;;;18.47;68.09;97454.94;4926426;28;20172;-75
2022/09/04 06:24:56;;;;;;;3.58;3.28;;;;;;;18.48;68.43;97453.84;4948785;28;20282;-74
2022/09/04 06:27:39;;;;;;;3.83;3.45;;;;;;;18.61;68.66;97454.97;4951711;28;20168;-74
2022/09/04 06:30:06;;;;;;;4.10;3.70;;;;;;;18.79;68.53;97455.97;4963214;28;20165;-76
2022/09/04 06:32:39;;;;;;;3.90;3.50;;;;;;;18.87;68.45;97465.13;4962574;28;20266;-75
2022/09/04 06:35:30;;;;;;;6.28;3.58;;;;;;;18.75;68.94;97468.19;4937513;28;20729;-74
2022/09/04 06:37:56;;;;;;;4.00;3.60;;;;;;;19.06;68.56;97468.47;4981870;28;20290;-75
2022/09/04 06:40:21;;;;;;;3.83;3.38;;;;;;;19.18;68.56;97486.47;4966926;28;20698;-75
2022/09/04 06:42:51;;;;;;;4.35;3.75;;;;;;;19.28;68.37;97481.00;4951025;28;20166;-75
2022/09/04 06:45:39;;;;;;;3.55;3.25;;;;;;;19.33;68.44;97487.25;4933476;28;20274;-75
2022/09/04 06:48:10;;;;;;;5.03;4.00;;;;;;;19.48;68.71;97481.66;4936016;28;20277;-75
2022/09/04 06:51:01;;;;;;;5.15;4.13;;;;;;;19.57;69.23;97482.56;4966222;28;20176;-75
2022/09/04 06:54:14;;;;;;;4.70;4.03;;;;;;;19.75;69.11;97482.75;4969209;28;20647;-75
2022/09/04 06:56:40;;;;;;;4.38;3.92;;;;;;;20.22;68.71;97485.97;4932496;28;20216;-75
2022/09/04 06:59:05;;;;;;;4.10;3.70;;;;;;;20.42;67.54;97483.94;4985070;28;20637;-75
2022/09/04 07:01:47;;;;;;;4.55;4.15;;;;;;;20.37;68.00;97482.97;4947114;28;20634;-75
2022/09/04 07:05:00;;;;;;;4.70;4.10;;;;;;;20.56;67.88;97487.28;4951233;28;20274;-75
2022/09/04 07:07:31;;;;;;;4.80;4.38;;;;;;;20.92;67.18;97486.41;4887899;28;20217;-75
2022/09/04 07:10:02;;;;;;;4.72;3.88;;;;;;;21.14;66.21;97488.25;4922395;28;20216;-75
2022/09/04 07:12:43;;;;;;;4.95;3.95;;;;;;;21.23;66.26;97490.91;4893460;28;20205;-75
2022/09/04 07:15:32;;;;;;;4.60;3.50;;;;;;;21.20;66.42;97494.16;4926983;28;20662;-75
2022/09/04 07:18:28;;;;;;;3.92;3.55;;;;;;;21.48;65.74;97487.59;4913682;28;20255;-75
2022/09/04 07:21:02;;;;;;;3.22;2.92;;;;;;;21.78;64.41;97495.78;4906815;28;20294;-75
2022/09/04 07:23:57;;;;;;;3.60;3.30;;;;;;;21.97;64.79;97500.00;4905541;28;20183;-75
2022/09/04 07:26:28;;;;;;;2.60;2.40;;;;;;;22.16;63.50;97503.16;4874401;28;20395;-76
2022/09/04 07:29:12;;;;;;;4.05;3.47;;;;;;;22.46;63.05;97515.81;4908651;28;20396;-76
2022/09/04 07:32:04;;;;;;;3.15;2.85;;;;;;;22.41;62.51;97514.09;4906542;28;20693;-75
2022/09/04 07:35:00;;;;;;;5.10;3.45;;;;;;;22.54;62.79;97520.34;4884891;28;20298;-75
2022/09/04 07:37:42;;;;;;;4.43;3.00;;;;;;;22.71;62.49;97524.84;4906868;28;20363;-75
2022/09/04 07:40:16;;;;;;;3.85;3.03;;;;;;;22.88;61.80;97524.81;4896545;28;20723;-76
2022/09/04 07:42:55;;;;;;;3.00;2.70;;;;;;;;;;4938022;28;20199;-75
2022/09/04 07:45:31;;;;;;;4.35;3.67;;;;;;;23.27;60.70;97528.31;4953751;28;20181;-75
2022/09/04 07:48:20;;;;;;;3.30;3.10;;;;;;;23.37;59.70;97527.16;4963091;28;20184;-74
2022/09/04 07:51:09;;;;;;;3.25;2.70;;;;;;;23.63;59.40;97532.38;4968540;28;20298;-75
2022/09/04 07:54:06;;;;;;;3.83;3.28;;;;;;;23.85;59.02;97535.88;4930603;28;20204;-75
2022/09/04 07:57:00;;;;;;;3.30;2.97;;;;;;;23.88;58.42;97537.91;4967870;28;20289;-75
2022/09/04 08:00:01;;;;;;;3.25;3.05;;;;;;;24.00;58.43;97542.50;4951741;28;20247;-75
2022/09/04 08:02:45;;;;;;;3.53;2.80;;;;;;;24.36;57.50;97549.91;4931270;28;20291;-75
2022/09/04 08:05:23;;;;;;;3.05;2.83;;;;;;;24.24;57.80;97552.50;4968443;28;20273;-75
2022/09/04 08:08:17;;;;;;;2.78;2.50;;;;;;;24.42;56.94;97551.28;4949540;28;20181;-75
2022/09/04 08:11:04;;;;;;;3.17;2.85;;;;;;;24.51;57.83;97561.09;4945259;28;20082;-76
2022/09/04 08:13:52;;;;;;;3.38;3.13;;;;;;;24.74;56.44;97564.97;4984093;28;20265;-74
2022/09/04 08:16:23;;;;;;;2.50;2.30;;;;;;;24.77;56.84;97564.31;4975199;28;20277;-75
2022/09/04 08:19:17;;;;;;;2.95;2.75;;;;;;;24.94;56.70;97571.34;4963252;28;20643;-76
2022/09/04 08:21:43;;;;;;;2.95;2.75;;;;;;;25.11;56.02;97567.75;4967065;28;20230;-75
2022/09/04 08:24:28;;;;;;;2.58;2.38;;;;;;;25.34;55.18;97562.03;4955535;28;20212;-75
2022/09/04 08:27:24;;;;;;;2.83;2.63;;;;;;;25.35;55.15;97563.59;4961813;28;20139;-76
2022/09/04 08:29:53;;;;;;;2.60;2.40;;;;;;;25.53;55.41;97564.16;4933091;28;20577;-75
2022/09/04 08:33:01;;;;;;;3.10;2.90;;;;;;;25.53;53.77;97569.47;4948610;28;20714;-74
2022/09/04 08:35:54;;;;;;;3.00;2.30;;;;;;;25.61;54.33;97566.69;4949831;28;20652;-75
2022/09/04 08:38:38;;;;;;;3.08;2.22;;;;;;;25.87;53.94;97578.91;4932842;28;20290;-75
2022/09/04 08:41:28;;;;;;;2.47;2.15;;;;;;;26.13;53.29;97583.94;4948434;28;20200;-74
2022/09/04 08:44:02;;;;;;;2.35;2.17;;;;;;;26.11;53.27;97580.81;4977300;28;20198;-74
2022/09/04 08:46:37;;;;;;;3.92;2.20;;;;;;;26.14;53.03;97582.81;4975748;28;20296;-75
2022/09/04 08:49:41;;;;;;;2.95;2.30;;;;;;;26.68;51.33;97581.69;4959292;28;20157;-74
2022/09/04 08:52:19;;;;;;;2.40;2.20;;;;;;;26.36;52.17;97591.44;4976901;28;20266;-75
2022/09/04 08:55:04;;;;;;;2.80;2.60;;;;;;;26.21;52.75;97592.16;4958539;28;20274;-76
2022/09/04 08:57:39;;;;;;;4.05;2.65;;;;;;;26.03;52.30;97591.59;4959225;28;20346;-75
2022/09/04 09:00:43;;;;;;;2.70;2.30;;;;;;;26.27;53.37;97591.59;4974271;28;20249;-74
2022/09/04 09:03:36;;;;;;;2.38;2.17;;;;;;;26.90;51.00;97591.06;4871292;28;20384;-75
2022/09/04 09:06:11;;;;;;;2.28;2.15;;;;;;;27.08;50.05;97594.19;4960437;28;20199;-75
2022/09/04 09:08:58;;;;;;;2.75;2.40;;;;;;;26.93;50.32;97599.50;4951415;28;20645;-75
2022/09/04 09:11:54;;;;;;;2.30;2.10;;;;;;;27.07;50.03;97597.19;4986039;28;20195;-75
2022/09/04 09:15:07;;;;;;;1.92;1.83;;;;;;;27.48;48.60;97592.50;4960350;28;20169;-75
2022/09/04 09:18:16;;;;;;;3.40;2.40;;;;;;;27.18;49.65;97600.94;4937491;28;20215;-75
2022/09/04 09:20:55;;;;;;;2.28;2.10;;;;;;;27.43;48.61;97596.22;4952194;28;20196;-75
2022/09/04 09:24:00;;;;;;;2.40;2.13;;;;;;;27.16;49.37;97602.38;4948766;28;20199;-75
2022/09/04 09:26:32;;;;;;;2.53;1.95;;;;;;;27.25;49.77;97600.34;4919855;28;20276;-75
2022/09/04 09:29:27;;;;;;;2.25;2.10;;;;;;;27.64;48.88;97595.19;4954470;28;20192;-75
2022/09/04 09:32:29;;;;;;;1.73;1.63;;;;;;;28.00;47.85;97596.00;4961729;28;20143;-75
2022/09/04 09:35:07;;;;;;;3.67;1.83;;;;;;;28.27;44.71;97601.56;4947623;28;20188;-75
2022/09/04 09:38:01;;;;;;;1.98;1.88;;;;;;;28.14;46.48;97595.56;4965607;28;20133;-76
2022/09/04 09:40:50;;;;;;;3.03;2.10;;;;;;;28.50;45.80;97594.41;4981787;28;20237;-75
2022/09/04 09:43:42;;;;;;;2.10;1.90;;;;;;;28.40;43.01;97584.25;4965336;28;20288;-75
2022/09/04 09:46:07;;;;;;;2.55;2.00;;;;;;;28.53;42.23;97585.66;4960454;28;20200;-75
2022/09/04 09:48:58;;;;;;;2.40;1.40;;;;;;;27.80;44.14;97587.91;4948513;28;20188;-75
2022/09/04 09:51:42;;;;;;;2.03;1.83;;;;;;;28.05;43.74;97593.06;4947542;28;20694;-75
2022/09/04 09:54:42;;;;;;;1.50;1.40;;;;;;;28.15;43.81;97594.44;4967575;28;20238;-74
2022/09/04 09:57:10;;;;;;;2.15;1.90;;;;;;;28.37;45.24;97584.94;4965672;28;20060;-75
2022/09/04 09:59:38;;;;;;;1.90;1.35;;;;;;;28.55;43.25;97582.66;4952512;28;20724;-74
2022/09/04 10:02:25;;;;;;;1.60;1.50;;;;;;;28.10;42.56;97590.13;4943987;28;20233;-75
2022/09/04 10:05:11;;;;;;;1.48;1.23;;;;;;;28.26;43.01;97584.75;4966006;28;20247;-76
2022/09/04 10:08:13;;;;;;;2.05;1.42;;;;;;;28.34;43.06;97572.25;4969951;28;20191;-75
2022/09/04 10:11:07;;;;;;;1.83;1.50;;;;;;;28.28;43.43;97571.78;4980968;28;20262;-75
2022/09/04 10:13:42;;;;;;;1.45;1.35;;;;;;;28.91;41.73;97578.75;4969190;28;20194;-75
2022/09/04 10:16:29;;;;;;;1.77;1.60;;;;;;;29.00;40.44;97575.06;4947830;28;20697;-75
2022/09/04 10:19:15;;;;;;;2.28;1.42;;;;;;;29.28;39.60;97572.88;4966899;28;20217;-75
2022/09/04 10:21:57;;;;;;;1.90;1.70;;;;;;;28.49;42.71;97578.69;4947270;28;20227;-76
2022/09/04 10:24:51;;;;;;;2.03;1.63;;;;;;;28.02;41.49;97583.84;4950185;28;20196;-75
2022/09/04 10:27:38;;;;;;;1.90;1.80;;;;;;;27.89;43.63;97586.97;4966065;28;20208;-75
2022/09/04 10:30:10;;;;;;;1.50;1.40;;;;;;;27.53;43.87;97578.13;4962617;28;20177;-76
2022/09/04 10:32:57;;;;;;;2.67;1.42;;;;;;;27.31;43.42;97588.28;4944275;28;20218;-75
2022/09/04 10:35:54;;;;;;;6.53;1.63;;;;;;;27.61;42.49;97585.19;4975678;28;20180;-74
2022/09/04 10:38:32;;;;;;;1.92;1.38;;;;;;;27.98;42.22;97577.66;4963142;28;20223;-74
2022/09/04 10:41:28;;;;;;;1.77;1.40;;;;;;;28.48;41.72;97583.28;4979074;28;20149;-76
2022/09/04 10:44:30;;;;;;;2.90;1.80;;;;;;;28.86;39.79;97576.34;4965370;28;20299;-74
2022/09/04 10:47:10;;;;;;;1.50;1.27;;;;;;;29.07;40.96;97575.19;4972742;28;20178;-75
2022/09/04 10:49:48;;;;;;;1.70;1.60;;;;;;;29.43;39.19;97581.19;4957627;28;20184;-75
2022/09/04 10:52:23;;;;;;;1.77;1.27;;;;;;;29.48;38.59;97578.19;4954615;28;20224;-75
2022/09/04 10:55:13;;;;;;;;;;;;;;;29.26;38.62;97582.44;4977046;28;20579;-75
2022/09/04 10:57:58;;;;;;;1.63;1.52;;;;;;;29.21;38.33;97586.19;4956225;28;20160;-75
2022/09/04 11:00:58;;;;;;;1.77;1.67;;;;;;;28.46;42.82;97574.78;4963758;28;20176;-75
2022/09/04 11:03:46;;;;;;;1.67;1.58;;;;;;;28.94;40.55;97571.88;4962421;28;20181;-75
2022/09/04 11:06:36;;;;;;;1.75;1.65;;;;;;;28.63;39.57;97573.63;4956719;28;20180;-75
2022/09/04 11:09:56;;;;;;;1.60;1.20;;;;;;;28.44;37.41;97581.63;4974536;28;20193;-75
2022/09/04 11:12:42;;;;;;;1.88;1.52;;;;;;;28.12;38.18;97574.50;4939642;28;20733;-75
2022/09/04 11:15:40;;;;;;;1.67;1.58;;;;;;;28.06;39.52;97573.22;4953179;28;20750;-75
2022/09/04 11:18:32;;;;;;;1.65;1.25;;;;;;;28.28;38.57;97568.31;4972934;28;20641;-75
2022/09/04 11:21:20;;;;;;;2.28;1.13;;;;;;;28.48;38.68;97561.84;4969299;28;20216;-75
2022/09/04 11:24:20;;;;;;;1.85;1.15;;;;;;;29.44;35.27;97564.72;4972344;28;20219;-74
2022/09/04 11:27:08;;;;;;;1.30;1.20;;;;;;;30.01;33.92;97564.03;4938607;28;20219;-75
2022/09/04 11:30:02;;;;;;;1.38;1.15;;;;;;;29.69;34.03;97561.63;4948616;28;20661;-75
2022/09/04 11:32:30;;;;;;;1.75;1.48;;;;;;;29.15;36.32;97566.16;4945950;28;20686;-75
2022/09/04 11:35:30;;;;;;;1.70;1.48;;;;;;;28.73;37.35;97569.59;4964551;28;20318;-75
2022/09/04 11:38:08;;;;;;;1.80;1.70;;;;;;;28.90;37.64;97557.66;4929658;28;20301;-74
2022/09/04 11:40:58;;;;;;;1.38;1.27;;;;;;;29.74;35.66;97555.19;4964587;28;20161;-74
2022/09/04 11:43:37;;;;;;;1.50;1.40;;;;;;;30.36;34.35;97554.91;4946123;28;20258;-74
2022/09/04 11:46:02;;;;;;;2.03;1.45;;;;;;;30.20;34.99;97549.69;4947177;28;20183;-75
2022/09/04 11:48:59;;;;;;;1.50;1.40;;;;;;;30.49;34.20;97555.44;4966494;28;20161;-75
2022/09/04 11:51:53;;;;;;;1.67;1.50;;;;;;;29.89;36.72;97556.97;4948857;28;20201;-74
2022/09/04 11:54:41;;;;;;;1.63;1.52;;;;;;;29.01;38.66;97563.19;4965939;28;20629;-74
2022/09/04 11:57:29;;;;;;;1.50;1.40;;;;;;;29.27;37.03;97557.16;4966265;28;20308;-74
2022/09/04 12:00:14;;;;;;;2.00;1.90;;;;;;;29.14;39.45;97567.25;4968629;28;20292;-75
2022/09/04 12:02:54;;;;;;;1.73;1.38;;;;;;;29.06;38.17;97557.53;4947474;28;20188;-75
2022/09/04 12:05:54;;;;;;;1.95;1.85;;;;;;;28.98;38.92;97561.22;4967775;28;20208;-75
2022/09/04 12:08:54;;;;;;;1.50;1.40;;;;;;;29.27;36.32;97560.63;4933192;28;20681;-75
2022/09/04 12:11:47;;;;;;;2.15;1.63;;;;;;;29.13;37.98;97560.34;4967401;28;20215;-74
2022/09/04 12:14:31;;;;;;;1.70;1.60;;;;;;;29.86;35.65;97553.09;4949919;28;20282;-74
2022/09/04 12:17:46;;;;;;;1.45;1.35;;;;;;;29.66;36.83;97560.47;4981451;28;20209;-74
2022/09/04 12:20:33;;;;;;;1.50;1.50;;;;;;;30.21;36.77;97565.44;4960317;28;20626;-74
2022/09/04 12:23:10;;;;;;;1.65;1.55;;;;;;;30.35;35.78;97575.63;4987014;28;20363;-75
2022/09/04 12:25:48;;;;;;;1.50;1.40;;;;;;;30.53;33.72;97572.38;4952166;28;20206;-74
2022/09/04 12:28:22;;;;;;;1.42;1.30;;;;;;;30.04;34.65;97571.34;4986354;28;20223;-75
2022/09/04 12:31:06;;;;;;;1.70;1.60;;;;;;;29.93;36.33;97565.84;4978001;28;20223;-75
2022/09/04 12:33:34;;;;;;;1.42;1.38;;;;;;;29.92;34.44;97564.31;4966716;28;20184;-75
2022/09/04 12:36:16;;;;;;;1.70;1.52;;;;;;;29.43;34.65;97570.44;4967228;28;20199;-74
2022/09/04 12:39:02;;;;;;;1.60;1.50;;;;;;;28.95;36.18;97563.50;4948983;28;20208;-74
2022/09/04 12:41:34;;;;;;;1.13;1.13;;;;;;;29.02;36.09;97565.53;4966981;28;20723;-74
2022/09/04 12:44:12;;;;;;;1.40;1.35;;;;;;;29.39;34.17;97570.41;4916958;28;20256;-74
2022/09/04 12:47:05;;;;;;;1.52;1.20;;;;;;;29.66;32.06;97568.50;4986340;28;20203;-74
2022/09/04 12:49:47;;;;;;;1.27;1.17;;;;;;;29.81;32.73;97574.88;4968461;28;20275;-75
2022/09/04 12:52:16;;;;;;;1.23;1.13;;;;;;;29.62;32.65;97567.66;4968052;28;20413;-74